Terminal Aerodrome Forecast
Issued by NWS

Home | Current Version | Previous Version | Text Only | Print | Product List | Glossary On
Versions: 1 2 3 4 5 6 7 8 9 10 11 12 13 14 15 16
000
FTUS44 KLUB 181500 AAA
TAFCDS
TAF AMD
KCDS 181506Z 1815/1912 19006KT P6SM OVC015
     FM182000 17011KT P6SM SCT030 SCT300=

USA.gov is the U.S. government's official web portal to all federal, state and local government web resources and services.